TimeCST,TemperatureF,Dew PointF,Humidity,Sea Level PressureIn,VisibilityMPH,Wind Direction,Wind SpeedMPH,Gust SpeedMPH,PrecipitationIn,Events,Conditions,WindDirDegrees,DateUTC
12:53 AM,55.0,39.9,57,29.93,10.0,South,18.4,24.2,N/A,,Clear,170,2012-11-22 06:53:00
1:53 AM,55.9,39.9,55,29.91,10.0,South,21.9,27.6,N/A,,Clear,180,2012-11-22 07:53:00
2:53 AM,55.9,39.9,55,29.89,10.0,South,23.0,32.2,N/A,,Clear,180,2012-11-22 08:53:00
3:53 AM,57.0,41.0,55,29.88,10.0,South,21.9,28.8,N/A,,Clear,180,2012-11-22 09:53:00
4:53 AM,57.0,42.1,57,29.86,10.0,South,23.0,28.8,N/A,,Clear,180,2012-11-22 10:53:00
5:53 AM,57.0,43.0,59,29.86,10.0,South,21.9,-,N/A,,Clear,180,2012-11-22 11:53:00
6:53 AM,57.0,44.1,62,29.87,10.0,South,15.0,-,N/A,,Clear,170,2012-11-22 12:53:00
7:53 AM,57.0,44.1,62,29.86,10.0,South,17.3,-,N/A,,Clear,180,2012-11-22 13:53:00
8:53 AM,61.0,46.9,60,29.87,10.0,South,21.9,28.8,N/A,,Clear,190,2012-11-22 14:53:00
9:53 AM,64.0,48.0,56,29.89,10.0,South,21.9,31.1,N/A,,Clear,190,2012-11-22 15:53:00
10:53 AM,66.0,48.9,54,29.90,10.0,SSW,21.9,31.1,N/A,,Clear,210,2012-11-22 16:53:00
11:53 AM,66.9,50.0,54,29.89,10.0,SSW,20.7,24.2,N/A,,Clear,210,2012-11-22 17:53:00
12:53 PM,69.1,50.0,51,29.88,10.0,SW,17.3,24.2,N/A,,Clear,220,2012-11-22 18:53:00
1:53 PM,70.0,48.9,47,29.88,10.0,West,12.7,-,N/A,,Clear,260,2012-11-22 19:53:00
2:53 PM,71.1,48.0,44,29.90,10.0,West,10.4,17.3,N/A,,Clear,260,2012-11-22 20:53:00
3:53 PM,70.0,23.0,17,29.94,10.0,WNW,12.7,-,N/A,,Clear,290,2012-11-22 21:53:00
4:53 PM,66.9,39.0,36,29.99,10.0,NNW,17.3,29.9,N/A,,Partly Cloudy,340,2012-11-22 22:53:00
5:53 PM,62.1,37.9,41,30.06,10.0,North,19.6,27.6,N/A,,Clear,350,2012-11-22 23:53:00
6:53 PM,57.0,39.0,51,30.12,10.0,North,16.1,25.3,N/A,,Clear,350,2012-11-23 00:53:00
7:53 PM,55.0,37.0,51,30.18,10.0,North,18.4,29.9,N/A,,Clear,350,2012-11-23 01:53:00
8:53 PM,51.1,37.0,59,30.24,10.0,North,15.0,24.2,N/A,,Clear,350,2012-11-23 02:53:00
9:53 PM,48.9,36.0,61,30.26,10.0,NNW,12.7,-,N/A,,Clear,340,2012-11-23 03:53:00
10:53 PM,44.1,35.1,71,30.27,10.0,NNW,8.1,-,N/A,,Clear,330,2012-11-23 04:53:00
11:53 PM,42.1,33.1,70,30.29,10.0,NW,8.1,-,N/A,,Clear,320,2012-11-23 05:53:00